ABY102 OBBI-OMSJ
Flight info
| Callsign | ABY102 |
|---|---|
| Flight time | N/A |
| Altitude | 25000 |
| Route | BHR N697 SODAK P559 KIVUS L305 EMOTA R784 GONVI |
| Aircraft | A320/M-SDE3FGHIRWY/LB1 |
Departure
| Time | 2026-05-07 11:47 |
|---|---|
| Airport | Bahrain International Airport (OBBI) |
Arrival
| Time | N/A |
|---|---|
| Airport | Sharjah International Airport (OMSJ) |
| Time | Latitude | Longitude | Altitude | Speed | Heading |
|---|---|---|---|---|---|
| 2026-05-07 11:20 | 26.26928 | 50.62851 | 20 ft | 0 kts | 213° |
| 2026-05-07 11:37 | 26.26945 | 50.62864 | 19 ft | 4 kts | 211° |
| 2026-05-07 11:37 | 26.26969 | 50.62879 | 19 ft | 4 kts | 208° |
| 2026-05-07 11:37 | 26.26993 | 50.62892 | 19 ft | 4 kts | 200° |
| 2026-05-07 11:38 | 26.27018 | 50.62898 | 20 ft | 4 kts | 165° |
| 2026-05-07 11:38 | 26.27030 | 50.62893 | 19 ft | 0 kts | 123° |
| 2026-05-07 11:41 | 26.27027 | 50.62898 | 19 ft | 3 kts | 121° |
| 2026-05-07 11:41 | 26.27005 | 50.62938 | 21 ft | 9 kts | 121° |
| 2026-05-07 11:42 | 26.26963 | 50.63013 | 19 ft | 14 kts | 123° |
| 2026-05-07 11:42 | 26.26916 | 50.63117 | 19 ft | 14 kts | 86° |
| 2026-05-07 11:42 | 26.26957 | 50.63205 | 19 ft | 12 kts | 85° |
| 2026-05-07 11:42 | 26.26926 | 50.63280 | 19 ft | 10 kts | 123° |
| 2026-05-07 11:43 | 26.26890 | 50.63341 | 19 ft | 9 kts | 123° |
| 2026-05-07 11:43 | 26.26859 | 50.63396 | 19 ft | 8 kts | 123° |
| 2026-05-07 11:43 | 26.26817 | 50.63466 | 19 ft | 14 kts | 123° |
| 2026-05-07 11:43 | 26.26753 | 50.63579 | 21 ft | 20 kts | 120° |
| 2026-05-07 11:44 | 26.26667 | 50.63729 | 20 ft | 26 kts | 122° |
| 2026-05-07 11:44 | 26.26561 | 50.63916 | 21 ft | 30 kts | 122° |
| 2026-05-07 11:44 | 26.26448 | 50.64109 | 21 ft | 30 kts | 123° |
| 2026-05-07 11:44 | 26.26335 | 50.64305 | 19 ft | 29 kts | 123° |
| 2026-05-07 11:45 | 26.26224 | 50.64495 | 19 ft | 29 kts | 123° |
| 2026-05-07 11:45 | 26.26110 | 50.64689 | 19 ft | 31 kts | 123° |
| 2026-05-07 11:45 | 26.26015 | 50.64875 | 20 ft | 25 kts | 100° |
| 2026-05-07 11:45 | 26.26075 | 50.64989 | 22 ft | 11 kts | 36° |
| 2026-05-07 11:46 | 26.26131 | 50.65026 | 22 ft | 8 kts | 7° |
| 2026-05-07 11:46 | 26.26152 | 50.64985 | 23 ft | 7 kts | 293° |
| 2026-05-07 11:46 | 26.26180 | 50.64932 | 22 ft | 10 kts | 302° |
| 2026-05-07 11:46 | 26.26313 | 50.64701 | 20 ft | 75 kts | 302° |
| 2026-05-07 11:47 | 26.26726 | 50.63985 | 20 ft | 141 kts | 303° |
| 2026-05-07 11:47 | 26.27343 | 50.62933 | 318 ft | 170 kts | 303° |
| 2026-05-07 11:47 | 26.28004 | 50.61807 | 1102 ft | 179 kts | 303° |
| 2026-05-07 11:47 | 26.28704 | 50.60598 | 1454 ft | 195 kts | 303° |
| 2026-05-07 11:48 | 26.29542 | 50.59318 | 1711 ft | 216 kts | 319° |
| 2026-05-07 11:48 | 26.30985 | 50.58723 | 2133 ft | 235 kts | 0° |
| 2026-05-07 11:48 | 26.32569 | 50.59339 | 2566 ft | 258 kts | 37° |
| 2026-05-07 11:48 | 26.33643 | 50.61001 | 3152 ft | 272 kts | 66° |
| 2026-05-07 11:49 | 26.34202 | 50.63035 | 3927 ft | 276 kts | 77° |
| 2026-05-07 11:49 | 26.34589 | 50.65140 | 4723 ft | 278 kts | 78° |
| 2026-05-07 11:49 | 26.34841 | 50.66576 | 5260 ft | 280 kts | 78° |
| 2026-05-07 11:49 | 26.35255 | 50.68704 | 6048 ft | 282 kts | 76° |
| 2026-05-07 11:50 | 26.35729 | 50.70829 | 6812 ft | 283 kts | 74° |
| 2026-05-07 11:50 | 26.36463 | 50.72864 | 7498 ft | 286 kts | 58° |
| 2026-05-07 11:50 | 26.37707 | 50.74596 | 8171 ft | 289 kts | 41° |
| 2026-05-07 11:50 | 26.39289 | 50.75990 | 8847 ft | 291 kts | 37° |
| 2026-05-07 11:51 | 26.40908 | 50.77371 | 9506 ft | 295 kts | 37° |
| 2026-05-07 11:51 | 26.42546 | 50.78773 | 10165 ft | 299 kts | 37° |
| 2026-05-07 11:51 | 26.44254 | 50.80240 | 10356 ft | 321 kts | 37° |
| 2026-05-07 11:51 | 26.46080 | 50.81815 | 10585 ft | 340 kts | 37° |
| 2026-05-07 11:52 | 26.47971 | 50.83452 | 11124 ft | 347 kts | 37° |
| 2026-05-07 11:52 | 26.49891 | 50.85115 | 11765 ft | 351 kts | 37° |
| 2026-05-07 11:52 | 26.51832 | 50.86796 | 12433 ft | 355 kts | 37° |
| 2026-05-07 11:52 | 26.53792 | 50.88493 | 13089 ft | 359 kts | 37° |
| 2026-05-07 11:53 | 26.55776 | 50.90211 | 13724 ft | 363 kts | 37° |
| 2026-05-07 11:53 | 26.57782 | 50.91949 | 14323 ft | 367 kts | 37° |
| 2026-05-07 11:53 | 26.59810 | 50.93712 | 14913 ft | 372 kts | 38° |
| 2026-05-07 11:53 | 26.61866 | 50.95494 | 15507 ft | 376 kts | 38° |
| 2026-05-07 11:54 | 26.63943 | 50.97292 | 16120 ft | 379 kts | 38° |
| 2026-05-07 11:54 | 26.66039 | 50.99104 | 16685 ft | 384 kts | 38° |
| 2026-05-07 11:54 | 26.68159 | 51.00939 | 17248 ft | 388 kts | 38° |
| 2026-05-07 11:54 | 26.70301 | 51.02795 | 17794 ft | 392 kts | 38° |
| 2026-05-07 11:55 | 26.72409 | 51.04753 | 18319 ft | 396 kts | 46° |
| 2026-05-07 11:55 | 26.74091 | 51.07190 | 18840 ft | 398 kts | 61° |
| 2026-05-07 11:55 | 26.75177 | 51.10045 | 19314 ft | 401 kts | 76° |
| 2026-05-07 11:55 | 26.75585 | 51.13161 | 19823 ft | 402 kts | 91° |
| 2026-05-07 11:56 | 26.75279 | 51.16262 | 20298 ft | 402 kts | 106° |
| 2026-05-07 11:56 | 26.74391 | 51.19234 | 20763 ft | 404 kts | 112° |
| 2026-05-07 11:56 | 26.73429 | 51.22203 | 21224 ft | 408 kts | 112° |
| 2026-05-07 11:56 | 26.72463 | 51.25204 | 21671 ft | 411 kts | 111° |
| 2026-05-07 11:57 | 26.71495 | 51.28226 | 22116 ft | 415 kts | 111° |
| 2026-05-07 11:57 | 26.70519 | 51.31276 | 22552 ft | 418 kts | 111° |
| 2026-05-07 11:57 | 26.69532 | 51.34350 | 22954 ft | 422 kts | 111° |
| 2026-05-07 11:57 | 26.68532 | 51.37449 | 23356 ft | 425 kts | 112° |
| 2026-05-07 11:58 | 26.67524 | 51.40569 | 23743 ft | 428 kts | 112° |
| 2026-05-07 11:58 | 26.66508 | 51.43712 | 24121 ft | 432 kts | 112° |
| 2026-05-07 11:58 | 26.65485 | 51.46880 | 24474 ft | 435 kts | 112° |
| 2026-05-07 11:58 | 26.64457 | 51.50077 | 24800 ft | 439 kts | 112° |
| 2026-05-07 11:59 | 26.63430 | 51.53281 | 24896 ft | 434 kts | 112° |
| 2026-05-07 11:59 | 26.62421 | 51.56435 | 24892 ft | 429 kts | 112° |
| 2026-05-07 11:59 | 26.61420 | 51.59561 | 24887 ft | 427 kts | 112° |
| 2026-05-07 11:59 | 26.60417 | 51.62678 | 24887 ft | 426 kts | 112° |
| 2026-05-07 12:00 | 26.59411 | 51.65785 | 24895 ft | 425 kts | 112° |
| 2026-05-07 12:00 | 26.58404 | 51.68892 | 24897 ft | 425 kts | 112° |
| 2026-05-07 12:00 | 26.57397 | 51.72002 | 24897 ft | 426 kts | 112° |
| 2026-05-07 12:00 | 26.56393 | 51.75107 | 24897 ft | 425 kts | 112° |
| 2026-05-07 12:01 | 26.55391 | 51.78211 | 24903 ft | 424 kts | 112° |
| 2026-05-07 12:01 | 26.54391 | 51.81307 | 24906 ft | 424 kts | 112° |
| 2026-05-07 12:01 | 26.53389 | 51.84399 | 24906 ft | 423 kts | 112° |
| 2026-05-07 12:01 | 26.52388 | 51.87488 | 24906 ft | 423 kts | 112° |
| 2026-05-07 12:02 | 26.51381 | 51.90570 | 24907 ft | 422 kts | 112° |
| 2026-05-07 12:02 | 26.50365 | 51.93645 | 24903 ft | 422 kts | 112° |
| 2026-05-07 12:02 | 26.49342 | 51.96714 | 24899 ft | 422 kts | 112° |
| 2026-05-07 12:02 | 26.48315 | 51.99779 | 24896 ft | 421 kts | 113° |
| 2026-05-07 12:03 | 26.47290 | 52.02841 | 24890 ft | 421 kts | 112° |
| 2026-05-07 12:03 | 26.46253 | 52.05943 | 24886 ft | 421 kts | 112° |
| 2026-05-07 12:03 | 26.45243 | 52.08965 | 24882 ft | 421 kts | 112° |
| 2026-05-07 12:03 | 26.44207 | 52.12068 | 24879 ft | 421 kts | 112° |
| 2026-05-07 12:04 | 26.43186 | 52.15130 | 24876 ft | 421 kts | 112° |
| 2026-05-07 12:04 | 26.42165 | 52.18190 | 24872 ft | 421 kts | 112° |
| 2026-05-07 12:04 | 26.41142 | 52.21251 | 24863 ft | 421 kts | 112° |
| 2026-05-07 12:04 | 26.40119 | 52.24309 | 24851 ft | 421 kts | 112° |
| 2026-05-07 12:05 | 26.39094 | 52.27374 | 24839 ft | 421 kts | 112° |
| 2026-05-07 12:05 | 26.38070 | 52.30432 | 24839 ft | 421 kts | 112° |
| 2026-05-07 12:05 | 26.37042 | 52.33492 | 24837 ft | 421 kts | 112° |
| 2026-05-07 12:05 | 26.36014 | 52.36547 | 24837 ft | 421 kts | 112° |
| 2026-05-07 12:06 | 26.34971 | 52.39601 | 24835 ft | 421 kts | 114° |
| 2026-05-07 12:06 | 26.33865 | 52.42620 | 24841 ft | 421 kts | 115° |
| 2026-05-07 12:06 | 26.32712 | 52.45613 | 24842 ft | 421 kts | 116° |
| 2026-05-07 12:06 | 26.31535 | 52.48597 | 24848 ft | 420 kts | 116° |
| 2026-05-07 12:07 | 26.30356 | 52.51579 | 24853 ft | 420 kts | 116° |
| 2026-05-07 12:07 | 26.29182 | 52.54565 | 24862 ft | 421 kts | 116° |
| 2026-05-07 12:07 | 26.28018 | 52.57554 | 24863 ft | 421 kts | 115° |
| 2026-05-07 12:07 | 26.26863 | 52.60551 | 24860 ft | 421 kts | 115° |
| 2026-05-07 12:08 | 26.25713 | 52.63550 | 24858 ft | 421 kts | 115° |
| 2026-05-07 12:08 | 26.24565 | 52.66548 | 24864 ft | 421 kts | 115° |
| 2026-05-07 12:08 | 26.23417 | 52.69547 | 24856 ft | 421 kts | 115° |
| 2026-05-07 12:08 | 26.22273 | 52.72543 | 24853 ft | 420 kts | 115° |
| 2026-05-07 12:09 | 26.21129 | 52.75534 | 24883 ft | 420 kts | 115° |
| 2026-05-07 12:09 | 26.19984 | 52.78528 | 24888 ft | 421 kts | 115° |
| 2026-05-07 12:09 | 26.18839 | 52.81525 | 24882 ft | 421 kts | 115° |
| 2026-05-07 12:09 | 26.17690 | 52.84527 | 24879 ft | 421 kts | 115° |
| 2026-05-07 12:10 | 26.16539 | 52.87521 | 24875 ft | 420 kts | 115° |
| 2026-05-07 12:10 | 26.15388 | 52.90510 | 24865 ft | 420 kts | 115° |
| 2026-05-07 12:10 | 26.14237 | 52.93501 | 24862 ft | 420 kts | 115° |
| 2026-05-07 12:10 | 26.13085 | 52.96491 | 24848 ft | 421 kts | 115° |
| 2026-05-07 12:11 | 26.11933 | 52.99483 | 24848 ft | 421 kts | 115° |
| 2026-05-07 12:11 | 26.10780 | 53.02475 | 24844 ft | 421 kts | 115° |
| 2026-05-07 12:11 | 26.09632 | 53.05469 | 24837 ft | 421 kts | 115° |
| 2026-05-07 12:11 | 26.08493 | 53.08514 | 24841 ft | 421 kts | 114° |
| 2026-05-07 12:12 | 26.07389 | 53.11531 | 24837 ft | 421 kts | 114° |
| 2026-05-07 12:12 | 26.06295 | 53.14552 | 24841 ft | 421 kts | 114° |
| 2026-05-07 12:12 | 26.05203 | 53.17572 | 24833 ft | 421 kts | 114° |
| 2026-05-07 12:12 | 26.04102 | 53.20591 | 24835 ft | 421 kts | 114° |
| 2026-05-07 12:13 | 26.02998 | 53.23602 | 24868 ft | 420 kts | 114° |
| 2026-05-07 12:13 | 26.01889 | 53.26612 | 24876 ft | 421 kts | 114° |
| 2026-05-07 12:13 | 26.00776 | 53.29622 | 24871 ft | 421 kts | 114° |
| 2026-05-07 12:13 | 25.99662 | 53.32633 | 24860 ft | 421 kts | 114° |
| 2026-05-07 12:14 | 25.98550 | 53.35646 | 24850 ft | 421 kts | 114° |
| 2026-05-07 12:14 | 25.97439 | 53.38653 | 24847 ft | 421 kts | 114° |
| 2026-05-07 12:14 | 25.96326 | 53.41662 | 24843 ft | 421 kts | 114° |
| 2026-05-07 12:14 | 25.95214 | 53.44665 | 24840 ft | 420 kts | 114° |
| 2026-05-07 12:15 | 25.94102 | 53.47667 | 24835 ft | 420 kts | 114° |
| 2026-05-07 12:15 | 25.92991 | 53.50671 | 24829 ft | 420 kts | 113° |
| 2026-05-07 12:15 | 25.91915 | 53.53688 | 24827 ft | 420 kts | 112° |
| 2026-05-07 12:15 | 25.90869 | 53.56718 | 24823 ft | 420 kts | 112° |
| 2026-05-07 12:16 | 25.89840 | 53.59752 | 24819 ft | 420 kts | 112° |
| 2026-05-07 12:16 | 25.88814 | 53.62789 | 24818 ft | 420 kts | 112° |
| 2026-05-07 12:16 | 25.87788 | 53.65823 | 24815 ft | 420 kts | 112° |
| 2026-05-07 12:16 | 25.86753 | 53.68856 | 24814 ft | 420 kts | 112° |
| 2026-05-07 12:17 | 25.85697 | 53.71927 | 24811 ft | 420 kts | 112° |
| 2026-05-07 12:17 | 25.84646 | 53.74955 | 24811 ft | 420 kts | 112° |
| 2026-05-07 12:17 | 25.83592 | 53.77978 | 24812 ft | 420 kts | 112° |
| 2026-05-07 12:17 | 25.82616 | 53.81034 | 24811 ft | 421 kts | 104° |
| 2026-05-07 12:18 | 25.82183 | 53.84247 | 24809 ft | 422 kts | 97° |
| 2026-05-07 12:18 | 25.81862 | 53.87459 | 24611 ft | 414 kts | 97° |
| 2026-05-07 12:18 | 25.81553 | 53.90604 | 24359 ft | 407 kts | 97° |
| 2026-05-07 12:18 | 25.81254 | 53.93710 | 24109 ft | 403 kts | 97° |
| 2026-05-07 12:19 | 25.80955 | 53.96797 | 23859 ft | 401 kts | 97° |
| 2026-05-07 12:19 | 25.80658 | 53.99860 | 23608 ft | 398 kts | 97° |
| 2026-05-07 12:19 | 25.80361 | 54.02913 | 23357 ft | 396 kts | 97° |
| 2026-05-07 12:19 | 25.80063 | 54.05945 | 23107 ft | 394 kts | 97° |
| 2026-05-07 12:20 | 25.79767 | 54.08960 | 22857 ft | 393 kts | 97° |
| 2026-05-07 12:20 | 25.79473 | 54.11968 | 22606 ft | 391 kts | 97° |
| 2026-05-07 12:20 | 25.79177 | 54.14956 | 22356 ft | 389 kts | 97° |
| 2026-05-07 12:20 | 25.78878 | 54.17933 | 22107 ft | 387 kts | 97° |
| 2026-05-07 12:21 | 25.78581 | 54.20895 | 21851 ft | 386 kts | 97° |
| 2026-05-07 12:21 | 25.78289 | 54.23846 | 21609 ft | 384 kts | 97° |
| 2026-05-07 12:21 | 25.77999 | 54.26784 | 21356 ft | 382 kts | 97° |
| 2026-05-07 12:21 | 25.77709 | 54.29709 | 21104 ft | 380 kts | 97° |
| 2026-05-07 12:22 | 25.77514 | 54.31672 | 20915 ft | 377 kts | 97° |
| 2026-05-07 12:22 | 25.77225 | 54.34553 | 20471 ft | 375 kts | 97° |
| 2026-05-07 12:22 | 25.76934 | 54.37426 | 19982 ft | 374 kts | 97° |
| 2026-05-07 12:22 | 25.76643 | 54.40287 | 19483 ft | 373 kts | 97° |
| 2026-05-07 12:23 | 25.76355 | 54.43138 | 19032 ft | 370 kts | 97° |
| 2026-05-07 12:23 | 25.76167 | 54.45014 | 18727 ft | 369 kts | 97° |